Time;durP1;ratioP1;P1;durP2;ratioP2;P2;SDS_P1;SDS_P2;PMS_P1;PMS_P2;Temp;Humidity;BMP_temperature;BMP_pressure;BME280_temperature;BME280_humidity;BME280_pressure;Samples;Min_cycle;Max_cycle;Signal;HPM_P1;HPM_P2
2024/01/07 00:00:18;;;;;;;0.70;0.70;;;-0.60;99.90;;;;;;5011825;28;20049;-80
2024/01/07 00:02:44;;;;;;;0.93;0.93;;;-0.50;99.90;;;;;;5006883;28;20045;-77
2024/01/07 00:05:10;;;;;;;0.70;0.70;;;-0.60;99.90;;;;;;4993349;28;20075;-80
2024/01/07 00:07:35;;;;;;;;;;;-0.60;99.90;;;;;;4994553;28;20057;-79
2024/01/07 00:10:01;;;;;;;1.70;1.45;;;0.30;99.90;;;;;;5006705;28;19971;-79
2024/01/07 00:12:27;;;;;;;0.68;0.68;;;0.40;99.90;;;;;;4988748;28;20042;-81
2024/01/07 00:14:52;;;;;;;0.80;0.80;;;-0.60;99.90;;;;;;5018003;28;20501;-80
2024/01/07 00:17:18;;;;;;;0.80;0.80;;;-0.60;99.90;;;;;;5008975;28;20053;-78
2024/01/07 00:19:44;;;;;;;0.68;0.68;;;-0.60;99.90;;;;;;5008724;28;20070;-79
2024/01/07 00:22:09;;;;;;;0.65;0.65;;;-0.60;99.90;;;;;;5014747;28;20053;-82
2024/01/07 00:24:35;;;;;;;0.73;0.73;;;-0.60;99.90;;;;;;4999250;28;20069;-79
2024/01/07 00:27:01;;;;;;;0.60;0.60;;;-0.70;99.90;;;;;;4980837;28;20033;-81
2024/01/07 00:29:27;;;;;;;0.70;0.70;;;-0.60;99.90;;;;;;5013493;28;20180;-78
2024/01/07 00:31:52;;;;;;;0.80;0.80;;;-0.70;99.90;;;;;;5010305;28;20041;-77
2024/01/07 00:34:18;;;;;;;0.88;0.88;;;-0.60;99.90;;;;;;4994204;28;20052;-82
2024/01/07 00:36:44;;;;;;;0.80;0.80;;;-0.70;99.90;;;;;;5013866;28;20088;-81
2024/01/07 00:39:09;;;;;;;0.80;0.80;;;-0.70;99.90;;;;;;5018591;28;20096;-82
2024/01/07 00:41:38;;;;;;;0.63;0.63;;;-0.70;99.90;;;;;;5002260;28;20052;-80
2024/01/07 00:44:03;;;;;;;0.82;0.82;;;-0.60;99.90;;;;;;4996530;28;20064;-78
2024/01/07 00:46:29;;;;;;;0.80;0.80;;;-0.70;99.90;;;;;;5010833;28;20448;-79
2024/01/07 00:48:55;;;;;;;;;;;-0.50;99.90;;;;;;5010178;28;20041;-79
2024/01/07 00:51:20;;;;;;;0.70;0.70;;;-0.60;99.90;;;;;;5018060;28;20051;-82
2024/01/07 00:53:46;;;;;;;;;;;-0.70;99.90;;;;;;4998835;28;20164;-81
2024/01/07 00:56:12;;;;;;;0.60;0.60;;;-0.70;99.90;;;;;;4995838;28;19921;-83
2024/01/07 00:58:37;;;;;;;0.80;0.80;;;-0.60;99.90;;;;;;4996656;28;20045;-78
2024/01/07 01:01:03;;;;;;;0.70;0.70;;;-0.20;99.90;;;;;;4982762;28;20056;-82
2024/01/07 01:03:29;;;;;;;0.82;0.82;;;-0.60;99.90;;;;;;5015780;28;20372;-80
2024/01/07 01:05:55;;;;;;;0.90;0.90;;;-0.60;99.90;;;;;;5013519;28;20046;-79
2024/01/07 01:08:20;;;;;;;0.80;0.80;;;-0.60;99.90;;;;;;5020311;28;20042;-78
2024/01/07 01:10:46;;;;;;;0.70;0.70;;;-0.60;99.90;;;;;;4997694;28;20053;-80
2024/01/07 01:13:12;;;;;;;0.60;0.60;;;-0.60;99.90;;;;;;4983662;28;20068;-78
2024/01/07 01:15:38;;;;;;;0.70;0.70;;;-0.60;99.90;;;;;;5014941;28;20482;-81
2024/01/07 01:18:04;;;;;;;0.70;0.70;;;-0.60;99.90;;;;;;4992835;28;20112;-78
2024/01/07 01:20:29;;;;;;;0.70;0.70;;;-0.60;99.90;;;;;;5013449;28;20398;-80
2024/01/07 01:22:55;;;;;;;1.15;1.15;;;-0.30;99.90;;;;;;4980701;28;20049;-80
2024/01/07 01:25:21;;;;;;;0.70;0.70;;;-0.60;99.90;;;;;;5011620;28;20049;-79
2024/01/07 01:27:47;;;;;;;0.77;0.77;;;-0.60;99.90;;;;;;4996456;28;20037;-81
2024/01/07 01:30:13;;;;;;;0.70;0.70;;;-0.60;99.90;;;;;;4995607;28;20038;-79
2024/01/07 01:32:39;;;;;;;0.70;0.70;;;-0.60;99.90;;;;;;4994247;28;20052;-78
2024/01/07 01:35:05;;;;;;;0.70;0.70;;;-0.60;99.90;;;;;;4997163;28;20038;-78
2024/01/07 01:37:32;;;;;;;0.80;0.80;;;-0.70;99.90;;;;;;5017195;28;20041;-79
2024/01/07 01:39:58;;;;;;;0.70;0.70;;;-0.70;99.90;;;;;;4999508;28;20046;-80
2024/01/07 01:42:25;;;;;;;0.70;0.70;;;-0.70;99.90;;;;;;5013555;28;20041;-77
2024/01/07 01:44:50;;;;;;;;;;;-0.70;99.90;;;;;;5014074;28;20046;-79
2024/01/07 01:47:16;;;;;;;0.65;0.65;;;-0.70;99.90;;;;;;4996510;28;19975;-77
2024/01/07 01:49:42;;;;;;;0.80;0.80;;;-0.70;99.90;;;;;;4985910;28;20502;-79
2024/01/07 01:52:09;;;;;;;0.80;0.80;;;-0.70;99.90;;;;;;5016137;28;20074;-78
2024/01/07 01:54:36;;;;;;;0.73;0.73;;;-0.70;99.90;;;;;;4996327;28;20041;-78
2024/01/07 01:57:01;;;;;;;;;;;-0.80;99.90;;;;;;5000479;28;20057;-81
2024/01/07 01:59:28;;;;;;;0.63;0.63;;;-0.80;99.90;;;;;;4996503;28;19921;-77
2024/01/07 02:01:55;;;;;;;0.80;0.80;;;-0.80;99.90;;;;;;5012754;28;20072;-80
2024/01/07 02:04:20;;;;;;;0.70;0.70;;;-0.80;99.90;;;;;;4992374;28;20434;-82
2024/01/07 02:06:46;;;;;;;0.70;0.70;;;-0.80;99.90;;;;;;4999234;28;20088;-79
2024/01/07 02:09:12;;;;;;;0.70;0.70;;;-0.80;99.90;;;;;;5013190;28;20064;-80
2024/01/07 02:11:38;;;;;;;1.45;1.35;;;-0.60;99.90;;;;;;4996306;28;20030;-80
2024/01/07 02:14:07;;;;;;;0.80;0.80;;;-0.80;99.90;;;;;;5002500;28;20069;-79
2024/01/07 02:16:33;;;;;;;0.70;0.70;;;-0.80;99.90;;;;;;4986758;28;20053;-80
2024/01/07 02:18:58;;;;;;;0.70;0.70;;;1.00;99.90;;;;;;4990996;28;20049;-78
2024/01/07 02:21:24;;;;;;;0.80;0.80;;;-0.80;99.90;;;;;;5001190;28;20538;-79
2024/01/07 02:23:50;;;;;;;0.70;0.70;;;-0.80;99.90;;;;;;5025510;28;20041;-77
2024/01/07 02:26:16;;;;;;;0.80;0.80;;;-0.80;99.90;;;;;;5003925;28;20175;-78
2024/01/07 02:28:41;;;;;;;0.70;0.70;;;-0.80;99.90;;;;;;4999564;28;20038;-79
2024/01/07 02:31:07;;;;;;;;;;;-0.80;99.90;;;;;;4987168;28;20033;-80
2024/01/07 02:33:32;;;;;;;0.70;0.70;;;-0.80;99.90;;;;;;5020096;28;19917;-81
2024/01/07 02:35:58;;;;;;;;;;;-0.80;99.90;;;;;;5021412;28;20037;-80
2024/01/07 02:38:24;;;;;;;2.67;1.90;;;-0.80;99.90;;;;;;5015901;28;19921;-80
2024/01/07 02:40:49;;;;;;;0.70;0.70;;;-0.80;99.90;;;;;;4999064;28;20048;-80
2024/01/07 02:43:15;;;;;;;0.80;0.80;;;-0.70;99.90;;;;;;5018071;28;20041;-80
2024/01/07 02:45:41;;;;;;;;;;;-0.80;99.90;;;;;;4983516;28;20088;-77
2024/01/07 02:48:06;;;;;;;0.73;0.73;;;-0.80;99.90;;;;;;5019790;28;20286;-81
2024/01/07 02:50:33;;;;;;;0.80;0.80;;;-0.80;99.90;;;;;;4987829;28;20351;-77
2024/01/07 02:52:58;;;;;;;;;;;-0.70;99.90;;;;;;5005089;28;20445;-82
2024/01/07 02:55:24;;;;;;;0.60;0.60;;;-0.80;99.90;;;;;;4997919;28;19968;-78
2024/01/07 02:57:49;;;;;;;0.70;0.70;;;-0.40;99.90;;;;;;4985696;28;20046;-80
2024/01/07 03:00:16;;;;;;;0.75;0.75;;;-0.80;99.90;;;;;;4984066;28;20095;-81
2024/01/07 03:02:41;;;;;;;0.68;0.68;;;-0.80;99.90;;;;;;5015102;28;20107;-78
2024/01/07 03:05:08;;;;;;;0.80;0.80;;;-0.80;99.90;;;;;;5019287;28;20065;-81
2024/01/07 03:07:33;;;;;;;;;;;-0.70;99.90;;;;;;5002016;28;20505;-82
2024/01/07 03:09:59;;;;;;;;;;;-0.80;99.90;;;;;;4998647;28;20293;-79
2024/01/07 03:12:24;;;;;;;;;;;-0.80;99.90;;;;;;5006944;28;20020;-77
2024/01/07 03:14:50;;;;;;;;;;;-0.60;99.90;;;;;;5017207;28;19932;-79
2024/01/07 03:17:17;;;;;;;;;;;-0.80;99.90;;;;;;4984336;28;19925;-77
2024/01/07 03:19:43;;;;;;;;;;;-0.80;99.90;;;;;;5013636;28;19956;-79
2024/01/07 03:22:08;;;;;;;;;;;-0.50;99.90;;;;;;5016491;28;20018;-78
2024/01/07 03:24:34;;;;;;;;;;;-0.80;99.90;;;;;;5018379;28;19929;-78
2024/01/07 03:27:00;;;;;;;;;;;0.20;99.90;;;;;;4982293;28;20056;-77
2024/01/07 03:29:25;;;;;;;;;;;0.00;99.90;;;;;;5018950;28;19917;-78
2024/01/07 03:31:52;;;;;;;;;;;-0.80;99.90;;;;;;4984283;28;20354;-81
2024/01/07 03:34:18;;;;;;;;;;;-0.80;99.90;;;;;;4999226;28;19917;-81
2024/01/07 03:36:44;;;;;;;;;;;-0.80;99.90;;;;;;4988063;28;19971;-82
2024/01/07 03:39:09;;;;;;;;;;;-0.90;99.90;;;;;;4994639;28;19917;-80
2024/01/07 03:41:35;;;;;;;;;;;-0.90;99.90;;;;;;5011962;28;19971;-79
2024/01/07 03:44:00;;;;;;;;;;;-0.90;99.90;;;;;;5010355;28;19925;-78
2024/01/07 03:46:26;;;;;;;;;;;-0.90;99.90;;;;;;5015265;28;20398;-80
2024/01/07 03:48:51;;;;;;;;;;;-0.80;99.90;;;;;;5012042;28;19921;-80
2024/01/07 03:51:17;;;;;;;;;;;-0.80;99.90;;;;;;5009287;28;19979;-79
2024/01/07 03:53:43;;;;;;;;;;;-0.80;99.90;;;;;;4999245;28;19940;-82
2024/01/07 03:56:08;;;;;;;;;;;-0.80;99.90;;;;;;5020405;28;19964;-81
2024/01/07 03:58:35;;;;;;;;;;;-0.80;99.90;;;;;;5016102;28;19987;-82
2024/01/07 04:01:00;;;;;;;;;;;-0.80;99.90;;;;;;5000675;28;19921;-79
2024/01/07 04:03:26;;;;;;;;;;;-1.10;99.90;;;;;;5014843;28;19995;-81
2024/01/07 04:05:52;;;;;;;;;;;-0.70;99.90;;;;;;5021780;28;19921;-77
2024/01/07 04:08:18;;;;;;;;;;;-0.70;99.90;;;;;;5002696;28;20255;-79
2024/01/07 04:10:43;;;;;;;;;;;0.00;99.90;;;;;;5018583;28;19922;-81
2024/01/07 04:13:09;;;;;;;;;;;-0.70;99.90;;;;;;4996671;28;19918;-80
2024/01/07 04:15:34;;;;;;;;;;;-0.70;99.90;;;;;;5014989;28;19964;-80
2024/01/07 04:18:03;;;;;;;;;;;-0.70;99.90;;;;;;5013659;28;19921;-81
2024/01/07 04:20:29;;;;;;;;;;;-0.70;99.90;;;;;;5014866;28;19936;-82
2024/01/07 04:22:55;;;;;;;;;;;-0.70;99.90;;;;;;5016812;28;19926;-81
2024/01/07 04:25:21;;;;;;;;;;;-0.70;99.90;;;;;;5014664;28;20020;-79
2024/01/07 04:27:46;;;;;;;;;;;-0.80;99.90;;;;;;5015028;28;20612;-82
2024/01/07 04:30:12;;;;;;;;;;;-0.70;99.90;;;;;;5015855;28;19921;-79
2024/01/07 04:32:37;;;;;;;;;;;-0.70;99.90;;;;;;5015191;28;19917;-80
2024/01/07 04:35:03;;;;;;;;;;;-0.50;99.90;;;;;;5021459;28;19932;-79
2024/01/07 04:37:29;;;;;;;;;;;-0.70;99.90;;;;;;4998318;28;19917;-82
2024/01/07 04:39:54;;;;;;;;;;;-0.80;99.90;;;;;;4989834;28;20401;-80
2024/01/07 04:42:20;;;;;;;;;;;0.20;99.90;;;;;;4996734;28;19992;-80
2024/01/07 04:44:46;;;;;;;;;;;1.20;99.90;;;;;;5020550;28;19925;-78
2024/01/07 04:47:30;;;;;;;;;;;-0.80;99.90;;;;;;5003542;28;19942;-82
2024/01/07 04:49:56;;;;;;;;;;;-0.80;99.90;;;;;;5027578;28;19917;-80
2024/01/07 04:52:25;;;;;;;;;;;-0.80;99.90;;;;;;5015495;28;19960;-79
2024/01/07 04:54:51;;;;;;;;;;;-0.80;99.90;;;;;;5016956;28;19925;-81
2024/01/07 04:57:17;;;;;;;;;;;-0.80;99.90;;;;;;5000863;28;19947;-79
2024/01/07 04:59:42;;;;;;;;;;;-0.70;99.90;;;;;;4999186;28;20745;-82
2024/01/07 05:02:08;;;;;;;;;;;-0.70;99.90;;;;;;5015192;28;20652;-78
2024/01/07 05:04:35;;;;;;;;;;;-0.70;99.90;;;;;;4999675;28;20027;-79
2024/01/07 05:07:01;;;;;;;;;;;0.00;99.90;;;;;;5019409;28;19917;-80
2024/01/07 05:09:26;;;;;;;;;;;-0.70;99.90;;;;;;5016489;28;19921;-83
2024/01/07 05:11:52;;;;;;;;;;;-0.70;99.90;;;;;;5000944;28;19932;-79
2024/01/07 05:14:17;;;;;;;;;;;-0.70;99.90;;;;;;5020913;28;19917;-79
2024/01/07 05:16:43;;;;;;;;;;;-0.70;99.90;;;;;;5014507;28;20011;-83
2024/01/07 05:19:09;;;;;;;;;;;-0.70;99.90;;;;;;5004225;28;19925;-79
2024/01/07 05:21:34;;;;;;;;;;;-0.70;99.90;;;;;;5001050;28;20274;-83
2024/01/07 05:24:00;;;;;;;;;;;-0.70;99.90;;;;;;4997546;28;19925;-82
2024/01/07 05:26:25;;;;;;;;;;;-0.70;99.90;;;;;;4996813;28;19963;-82
2024/01/07 05:28:51;;;;;;;;;;;-0.70;99.90;;;;;;5017622;28;20263;-78
2024/01/07 05:31:20;;;;;;;;;;;-0.70;99.90;;;;;;5019219;28;20385;-82
2024/01/07 05:33:45;;;;;;;;;;;-0.70;99.90;;;;;;4996375;28;19918;-83
2024/01/07 05:36:11;;;;;;;;;;;-0.70;99.90;;;;;;5014317;28;20004;-82
2024/01/07 05:38:37;;;;;;;;;;;-0.60;99.90;;;;;;5022105;28;19964;-83
2024/01/07 05:41:03;;;;;;;;;;;-0.70;99.90;;;;;;5016297;28;19953;-80
2024/01/07 05:43:28;;;;;;;;;;;-0.60;99.90;;;;;;5016013;28;19931;-79
2024/01/07 05:45:54;;;;;;;;;;;-0.60;99.90;;;;;;5000501;28;19925;-80
2024/01/07 05:48:23;;;;;;;;;;;-0.80;99.90;;;;;;5015993;28;19976;-80
2024/01/07 05:50:49;;;;;;;;;;;-0.70;99.90;;;;;;5002555;28;19917;-80
2024/01/07 05:53:14;;;;;;;;;;;-0.70;99.90;;;;;;5008499;28;19974;-81
2024/01/07 05:55:40;;;;;;;;;;;-0.70;99.90;;;;;;5004664;28;19917;-82
2024/01/07 05:58:05;;;;;;;;;;;-0.70;99.90;;;;;;5006621;28;19931;-83
2024/01/07 06:00:31;;;;;;;;;;;-0.70;99.90;;;;;;5005082;28;19999;-84
2024/01/07 06:02:57;;;;;;;;;;;-0.70;99.90;;;;;;5003241;28;20031;-82
2024/01/07 06:05:23;;;;;;;;;;;-0.70;99.90;;;;;;5021103;28;19917;-85
2024/01/07 06:07:48;;;;;;;;;;;-0.70;99.90;;;;;;5009624;28;19917;-81
2024/01/07 06:10:14;;;;;;;;;;;-0.70;99.90;;;;;;5000963;28;19921;-81
2024/01/07 06:12:39;;;;;;;;;;;-0.70;99.90;;;;;;5008327;28;19975;-83
2024/01/07 06:15:05;;;;;;;;;;;-0.30;99.90;;;;;;5005329;28;20012;-81
2024/01/07 06:17:31;;;;;;;;;;;-0.70;99.90;;;;;;5003066;28;19917;-83
2024/01/07 06:19:56;;;;;;;;;;;0.20;99.90;;;;;;5016349;28;19925;-82
2024/01/07 06:22:22;;;;;;;;;;;-0.70;99.90;;;;;;5020489;28;19917;-79
2024/01/07 06:24:47;;;;;;;;;;;-0.50;99.90;;;;;;5002309;28;19921;-80
2024/01/07 06:27:13;;;;;;;;;;;-0.70;99.90;;;;;;5007698;28;20050;-82
2024/01/07 06:29:39;;;;;;;;;;;-0.70;99.90;;;;;;5001607;28;19921;-81
2024/01/07 06:32:05;;;;;;;;;;;-0.70;99.90;;;;;;5020902;28;20365;-78
2024/01/07 06:34:30;;;;;;;;;;;-0.70;99.90;;;;;;5015764;28;19944;-82
2024/01/07 06:36:56;;;;;;;;;;;-0.70;99.90;;;;;;5021435;28;20366;-79
2024/01/07 06:39:21;;;;;;;;;;;-0.70;99.90;;;;;;5016121;28;19979;-79
2024/01/07 06:41:47;;;;;;;;;;;-0.10;99.90;;;;;;5019971;28;19921;-80
2024/01/07 06:44:13;;;;;;;;;;;-0.70;99.90;;;;;;5018484;28;19931;-80
2024/01/07 06:46:38;;;;;;;;;;;-0.70;99.90;;;;;;5016450;28;21711;-79
2024/01/07 06:49:04;;;;;;;;;;;-0.80;99.90;;;;;;5004044;28;19917;-80
2024/01/07 06:51:29;;;;;;;;;;;-0.20;99.90;;;;;;5003501;28;19978;-80
2024/01/07 06:53:55;;;;;;;;;;;-0.80;99.90;;;;;;4999160;28;20011;-79
2024/01/07 06:56:21;;;;;;;;;;;0.40;99.90;;;;;;4984204;28;19920;-78
2024/01/07 06:58:47;;;;;;;;;;;-0.80;99.90;;;;;;5008295;28;20008;-80
2024/01/07 07:01:13;;;;;;;;;;;-0.90;99.90;;;;;;5016145;28;20314;-79
2024/01/07 07:03:40;;;;;;;;;;;-1.00;99.90;;;;;;4999618;28;19928;-79
2024/01/07 07:06:05;;;;;;;;;;;-1.00;99.90;;;;;;4988005;28;20300;-79
2024/01/07 07:08:31;;;;;;;;;;;-1.00;99.90;;;;;;5011621;28;19921;-79
2024/01/07 07:10:56;;;;;;;;;;;-1.10;99.90;;;;;;5017783;28;19932;-81
2024/01/07 07:13:22;;;;;;;;;;;-1.20;99.90;;;;;;5021149;28;19991;-79
2024/01/07 07:15:47;;;;;;;;;;;-1.30;99.90;;;;;;5021734;28;19918;-79
2024/01/07 07:18:13;;;;;;;;;;;-1.20;99.90;;;;;;4999761;28;19924;-80
2024/01/07 07:20:39;;;;;;;;;;;-1.40;99.90;;;;;;5016231;28;19970;-81
2024/01/07 07:23:04;;;;;;;;;;;-1.50;99.90;;;;;;5016118;28;20382;-80
2024/01/07 07:25:30;;;;;;;;;;;-1.50;99.90;;;;;;5001638;28;19931;-79
2024/01/07 07:27:56;;;;;;;;;;;-1.60;99.90;;;;;;5000039;28;20027;-78
2024/01/07 07:30:22;;;;;;;;;;;-1.30;99.90;;;;;;4995397;28;19921;-78
2024/01/07 07:32:47;;;;;;;;;;;-1.70;99.90;;;;;;5019620;28;20235;-78
2024/01/07 07:35:13;;;;;;;;;;;-1.70;99.90;;;;;;5000274;28;19918;-79
2024/01/07 07:37:38;;;;;;;;;;;-1.70;99.90;;;;;;5016427;28;20390;-80
2024/01/07 07:40:04;;;;;;;;;;;-1.80;99.90;;;;;;4995932;28;19932;-80
2024/01/07 07:42:30;;;;;;;;;;;-1.80;99.90;;;;;;5008807;28;20053;-78
2024/01/07 07:44:55;;;;;;;;;;;-1.60;99.90;;;;;;5021982;28;19921;-77
2024/01/07 07:47:21;;;;;;;;;;;-1.80;99.90;;;;;;5024166;28;20433;-81
2024/01/07 07:49:46;;;;;;;;;;;-1.40;99.90;;;;;;5014319;28;19932;-80
2024/01/07 07:52:14;;;;;;;;;;;-1.70;99.90;;;;;;5016030;28;19921;-82
2024/01/07 07:54:39;;;;;;;;;;;-1.60;99.90;;;;;;5001252;28;19917;-81
2024/01/07 07:57:05;;;;;;;;;;;-1.60;99.90;;;;;;5003317;28;19991;-78
2024/01/07 07:59:31;;;;;;;;;;;-1.50;99.90;;;;;;5018790;28;20000;-80
2024/01/07 08:01:56;;;;;;;;;;;-1.40;99.90;;;;;;5014456;28;19921;-79
2024/01/07 08:04:22;;;;;;;;;;;-1.20;99.90;;;;;;5020420;28;19979;-81
2024/01/07 08:06:47;;;;;;;;;;;-1.30;99.90;;;;;;5001309;28;19921;-79
2024/01/07 08:09:13;;;;;;;;;;;-1.30;99.90;;;;;;5015955;28;19975;-81
2024/01/07 08:11:39;;;;;;;;;;;-0.50;99.90;;;;;;5018491;28;19929;-80
2024/01/07 08:14:05;;;;;;;;;;;-1.20;99.90;;;;;;5001331;28;20011;-78
2024/01/07 08:16:31;;;;;;;;;;;-0.60;99.90;;;;;;5016719;28;20562;-78
2024/01/07 08:18:57;;;;;;;;;;;-1.10;99.90;;;;;;5013251;28;19932;-78
2024/01/07 08:21:23;;;;;;;;;;;-1.00;99.90;;;;;;5018936;28;19925;-83
2024/01/07 08:23:48;;;;;;;;;;;-1.00;99.90;;;;;;5010491;28;19987;-77
2024/01/07 08:26:20;;;;;;;;;;;-0.90;99.90;;;;;;4983954;28;19928;-81
2024/01/07 08:28:46;;;;;;;;;;;-0.90;99.90;;;;;;5013266;28;19917;-79
2024/01/07 08:31:14;;;;;;;;;;;-0.90;99.90;;;;;;5019206;28;19976;-80
2024/01/07 08:33:39;;;;;;;;;;;-0.90;99.90;;;;;;5014888;28;19927;-81
2024/01/07 08:36:05;;;;;;;;;;;-0.80;99.90;;;;;;5017245;28;19922;-79
2024/01/07 08:38:31;;;;;;;;;;;-0.80;99.90;;;;;;5004595;28;19928;-78
2024/01/07 08:40:56;;;;;;;;;;;-0.70;99.90;;;;;;4989218;28;19952;-79
2024/01/07 08:43:22;;;;;;;;;;;-0.70;99.90;;;;;;5025504;28;19925;-81
2024/01/07 08:45:48;;;;;;;;;;;-0.70;99.90;;;;;;5019328;28;20362;-81
2024/01/07 08:48:13;;;;;;;;;;;0.40;99.90;;;;;;5018378;28;19961;-79
2024/01/07 08:50:39;;;;;;;;;;;-0.60;99.90;;;;;;5001957;28;20266;-80
2024/01/07 08:53:04;;;;;;;;;;;-0.60;99.90;;;;;;5004539;28;19917;-78
2024/01/07 08:55:30;;;;;;;;;;;-0.50;99.90;;;;;;4997774;28;20014;-79
2024/01/07 08:57:56;;;;;;;;;;;-0.40;99.90;;;;;;5012592;28;19927;-81
2024/01/07 09:00:25;;;;;;;;;;;-0.50;99.90;;;;;;4991125;28;19923;-80
2024/01/07 09:02:51;;;;;;;;;;;-0.50;99.90;;;;;;5013329;28;20003;-77
2024/01/07 09:05:17;;;;;;;;;;;-0.50;99.90;;;;;;5000107;28;20288;-77
2024/01/07 09:07:42;;;;;;;;;;;-0.40;99.90;;;;;;5007674;28;19924;-79
2024/01/07 09:10:13;;;;;;;;;;;-0.40;99.90;;;;;;5007905;28;19925;-80
2024/01/07 09:12:38;;;;;;;;;;;-1.30;99.90;;;;;;5016067;28;19928;-78
2024/01/07 09:15:07;;;;;;;;;;;-0.30;99.90;;;;;;4993644;28;20027;-79
2024/01/07 09:17:34;;;;;;;;;;;-0.30;99.90;;;;;;5009024;28;19940;-79
2024/01/07 09:20:00;;;;;;;;;;;-0.20;99.90;;;;;;5009461;28;19977;-80
2024/01/07 09:22:25;;;;;;;;;;;-0.20;99.90;;;;;;4992488;28;20362;-81
2024/01/07 09:24:51;;;;;;;;;;;-0.20;99.90;;;;;;5010655;28;19969;-80
2024/01/07 09:27:17;;;;;;;;;;;-0.20;99.90;;;;;;4985818;28;19918;-80
2024/01/07 09:29:42;;;;;;;;;;;-0.20;99.90;;;;;;4990354;28;19923;-81
2024/01/07 09:32:08;;;;;;;;;;;-0.20;99.90;;;;;;4977704;28;19921;-81
2024/01/07 09:34:33;;;;;;;;;;;-0.10;99.90;;;;;;4993028;28;19928;-81
2024/01/07 09:37:00;;;;;;;;;;;-0.10;99.90;;;;;;4991135;28;19964;-82
2024/01/07 09:39:25;;;;;;;;;;;-0.10;99.90;;;;;;5005066;28;19956;-80
2024/01/07 09:41:51;;;;;;;;;;;0.00;99.90;;;;;;5020822;28;19926;-79
2024/01/07 09:44:18;;;;;;;;;;;0.00;99.90;;;;;;5009736;28;20008;-81
2024/01/07 09:46:45;;;;;;;;;;;0.10;99.90;;;;;;5005611;28;20310;-80
2024/01/07 09:49:11;;;;;;;;;;;0.10;99.90;;;;;;5004821;28;19926;-83
2024/01/07 09:51:37;;;;;;;;;;;0.20;99.90;;;;;;5009178;28;19984;-79
2024/01/07 09:54:06;;;;;;;;;;;0.20;99.90;;;;;;4992013;28;19963;-82
2024/01/07 09:56:38;;;;;;;;;;;0.20;99.90;;;;;;4989930;28;19921;-81
2024/01/07 09:59:04;;;;;;;;;;;0.20;99.90;;;;;;5002920;28;19921;-81
2024/01/07 10:01:30;;;;;;;;;;;0.30;99.90;;;;;;4991620;28;19918;-83
2024/01/07 10:03:56;;;;;;;;;;;0.40;99.90;;;;;;4991977;28;20954;-80
2024/01/07 10:06:22;;;;;;;;;;;0.30;99.90;;;;;;5009270;28;19924;-82
2024/01/07 10:08:48;;;;;;;;;;;0.10;99.90;;;;;;5011220;28;19918;-79
2024/01/07 10:11:13;;;;;;;;;;;0.30;99.90;;;;;;5008145;28;19925;-82
2024/01/07 10:13:39;;;;;;;;;;;0.30;99.90;;;;;;5008079;28;19979;-82
2024/01/07 10:16:07;;;;;;;;;;;0.30;99.90;;;;;;4991442;28;20275;-81
2024/01/07 10:18:34;;;;;;;;;;;0.30;99.90;;;;;;5011060;28;19917;-82
2024/01/07 10:21:05;;;;;;;;;;;0.20;99.90;;;;;;4991939;28;19925;-81
2024/01/07 10:23:31;;;;;;;;;;;0.30;99.90;;;;;;4997811;28;20452;-79
2024/01/07 10:25:58;;;;;;;;;;;0.40;99.90;;;;;;5011851;28;20007;-80
2024/01/07 10:28:23;;;;;;;;;;;0.30;99.90;;;;;;4992017;28;19917;-80
2024/01/07 10:30:52;;;;;;;;;;;0.30;99.90;;;;;;4991750;28;19944;-82
2024/01/07 10:33:22;;;;;;;;;;;0.20;99.90;;;;;;4994816;28;20048;-82
2024/01/07 10:35:52;;;;;;;;;;;0.10;99.90;;;;;;5010973;28;19924;-82
2024/01/07 10:38:19;;;;;;;;;;;0.10;99.90;;;;;;5014583;28;19987;-82
2024/01/07 10:40:45;;;;;;;;;;;0.10;99.90;;;;;;4995863;28;19976;-78
2024/01/07 10:43:12;;;;;;;;;;;1.10;99.90;;;;;;4994498;28;19925;-80
2024/01/07 10:45:37;;;;;;;;;;;0.10;99.90;;;;;;5011602;28;19921;-82
2024/01/07 10:48:08;;;;;;;;;;;0.20;99.90;;;;;;4995072;28;19987;-82
2024/01/07 10:50:34;;;;;;;;;;;0.30;99.90;;;;;;5012509;28;19917;-81
2024/01/07 10:53:04;;;;;;;;;;;0.40;99.90;;;;;;5013743;28;19940;-83
2024/01/07 10:55:33;;;;;;;;;;;1.40;99.90;;;;;;5014453;28;20246;-80
2024/01/07 10:57:59;;;;;;;;;;;0.50;99.90;;;;;;4996480;28;19929;-83
2024/01/07 11:00:25;;;;;;;;;;;1.90;99.90;;;;;;5011830;28;20290;-82
2024/01/07 11:02:54;;;;;;;;;;;0.70;99.90;;;;;;5013134;28;19919;-82
2024/01/07 11:05:25;;;;;;;;;;;0.80;99.90;;;;;;5012741;28;19922;-80
2024/01/07 11:08:14;;;;;;;;;;;0.80;99.90;;;;;;5016757;28;20294;-82
2024/01/07 11:10:46;;;;;;;;;;;0.60;99.90;;;;;;4987829;28;20004;-80
2024/01/07 11:13:31;;;;;;;;;;;0.50;99.90;;;;;;4996308;28;19917;-83
2024/01/07 11:15:57;;;;;;;;;;;1.30;99.90;;;;;;4998571;28;20018;-81
2024/01/07 11:18:23;;;;;;;;;;;1.20;99.90;;;;;;5011401;28;19964;-80
2024/01/07 11:20:49;;;;;;;;;;;0.20;99.90;;;;;;5010544;28;19961;-81
2024/01/07 11:23:29;;;;;;;;;;;0.10;99.90;;;;;;5015686;28;20443;-83
2024/01/07 11:25:56;;;;;;;;;;;0.10;99.90;;;;;;5009885;28;19965;-83
2024/01/07 11:28:41;;;;;;;;;;;0.10;99.90;;;;;;4995020;28;19917;-80
2024/01/07 11:31:08;;;;;;;;;;;0.10;99.90;;;;;;5014751;28;20365;-81
2024/01/07 11:33:36;;;;;;;;;;;0.20;99.90;;;;;;5012022;28;19982;-83
2024/01/07 11:36:05;;;;;;;;;;;0.20;99.90;;;;;;5011383;28;19941;-80
2024/01/07 11:38:30;;;;;;;;;;;0.30;99.90;;;;;;4995538;28;19921;-80
2024/01/07 11:40:57;;;;;;;;;;;0.30;99.90;;;;;;5013682;28;19987;-83
2024/01/07 11:43:22;;;;;;;;;;;0.30;99.90;;;;;;4993820;28;20008;-83
2024/01/07 11:45:51;;;;;;;;;;;0.40;99.90;;;;;;4997463;28;20004;-81
2024/01/07 11:48:20;;;;;;;;;;;0.50;99.90;;;;;;4994832;28;20011;-78
2024/01/07 11:50:46;;;;;;;;;;;0.50;99.90;;;;;;5011436;28;20319;-82
2024/01/07 11:53:11;;;;;;;;;;;0.00;99.90;;;;;;5015684;28;19971;-79
2024/01/07 11:55:37;;;;;;;;;;;0.40;99.90;;;;;;4997402;28;19941;-80
2024/01/07 11:58:03;;;;;;;;;;;0.40;99.90;;;;;;5012261;28;19917;-80
2024/01/07 12:00:32;;;;;;;;;;;0.40;99.90;;;;;;4997611;28;19920;-80
2024/01/07 12:03:01;;;;;;;;;;;0.40;99.90;;;;;;4987771;28;19944;-84
2024/01/07 12:05:28;;;;;;;;;;;0.40;99.90;;;;;;5012086;28;19933;-81
2024/01/07 12:07:53;;;;;;;;;;;0.50;99.90;;;;;;4999449;28;20277;-82
2024/01/07 12:10:19;;;;;;;;;;;0.50;99.90;;;;;;5002403;28;19921;-81
2024/01/07 12:12:45;;;;;;;;;;;0.50;99.90;;;;;;4995216;28;19972;-79
2024/01/07 12:15:11;;;;;;;;;;;0.50;99.90;;;;;;4995848;28;20255;-79
2024/01/07 12:17:40;;;;;;;;;;;0.50;99.90;;;;;;5002305;28;19943;-82
2024/01/07 12:20:08;;;;;;;;;;;0.50;99.90;;;;;;5008540;28;20509;-82
2024/01/07 12:22:37;;;;;;;;;;;0.50;99.90;;;;;;5017200;28;19921;-83
2024/01/07 12:25:03;;;;;;;;;;;0.50;99.90;;;;;;4992854;28;20008;-79
2024/01/07 12:27:29;;;;;;;;;;;0.50;99.90;;;;;;4994178;28;20012;-81
2024/01/07 12:29:56;;;;;;;;;;;0.80;99.90;;;;;;4997295;28;19926;-82
2024/01/07 12:32:21;;;;;;;;;;;0.60;99.90;;;;;;5010126;28;19924;-79
2024/01/07 12:34:47;;;;;;;;;;;0.70;99.90;;;;;;5010382;28;19921;-80
2024/01/07 12:37:13;;;;;;;;;;;0.90;99.90;;;;;;5008916;28;19923;-81
2024/01/07 12:39:39;;;;;;;;;;;1.30;99.90;;;;;;5009402;28;19921;-83
2024/01/07 12:42:04;;;;;;;;;;;1.40;99.90;;;;;;4992242;28;19964;-81
2024/01/07 12:44:30;;;;;;;;;;;1.60;99.90;;;;;;5009664;28;19948;-80
2024/01/07 12:46:56;;;;;;;;;;;1.20;99.90;;;;;;4987664;28;19916;-79
2024/01/07 12:49:22;;;;;;;;;;;1.40;99.90;;;;;;4982983;28;20228;-80
2024/01/07 12:51:47;;;;;;;;;;;1.40;99.90;;;;;;4980921;28;20488;-83
2024/01/07 12:54:13;;;;;;;;;;;1.10;99.90;;;;;;4984257;28;20413;-81
2024/01/07 12:56:39;;;;;;;;;;;0.80;99.90;;;;;;4997499;28;19921;-81
2024/01/07 12:59:05;;;;;;;;;;;0.30;99.90;;;;;;4982419;28;19975;-81
2024/01/07 13:01:31;;;;;;;;;;;0.40;99.90;;;;;;4965138;28;19918;-80
2024/01/07 13:03:56;;;;;;;;;;;0.50;99.90;;;;;;4999882;28;19925;-81
2024/01/07 13:06:22;;;;;;;;;;;0.30;99.90;;;;;;5006603;28;19921;-81
2024/01/07 13:08:48;;;;;;;;;;;0.30;99.90;;;;;;4981184;28;20365;-81
2024/01/07 13:11:15;;;;;;;;;;;0.30;99.90;;;;;;4983332;28;20294;-82
2024/01/07 13:13:40;;;;;;;;;;;0.30;99.90;;;;;;4988079;28;19917;-81
2024/01/07 13:16:07;;;;;;;;;;;0.30;99.90;;;;;;4990608;28;19925;-83
2024/01/07 13:18:33;;;;;;;;;;;0.40;99.90;;;;;;5006516;28;19963;-81
2024/01/07 13:20:58;;;;;;;;;;;0.40;99.90;;;;;;5005946;28;19925;-80
2024/01/07 13:23:26;;;;;;;;;;;0.40;99.90;;;;;;5002698;28;19921;-81
2024/01/07 13:25:51;;;;;;;;;;;0.40;99.90;;;;;;4999011;28;19965;-80
2024/01/07 13:28:17;;;;;;;;;;;0.40;99.90;;;;;;5017860;28;20030;-82
2024/01/07 13:30:42;;;;;;;;;;;0.40;99.90;;;;;;4989038;28;19921;-80
2024/01/07 13:33:08;;;;;;;;;;;0.40;99.90;;;;;;5006863;28;20362;-80
2024/01/07 13:35:34;;;;;;;;;;;0.30;99.90;;;;;;5005072;28;19925;-79
2024/01/07 13:38:00;;;;;;;;;;;0.20;99.90;;;;;;4998167;28;19921;-83
2024/01/07 13:40:27;;;;;;;;;;;1.00;99.90;;;;;;5011402;28;20393;-80
2024/01/07 13:42:53;;;;;;;;;;;0.40;99.90;;;;;;5007582;28;20008;-79
2024/01/07 13:45:23;;;;;;;;;;;0.00;99.90;;;;;;4994597;28;20344;-80
2024/01/07 13:47:49;;;;;;;;;;;-0.10;99.90;;;;;;5009333;28;19917;-81
2024/01/07 13:50:14;;;;;;;;;;;0.00;99.90;;;;;;5009644;28;20261;-83
2024/01/07 13:52:40;;;;;;;;;;;-0.20;99.90;;;;;;5003110;28;19929;-80
2024/01/07 13:55:09;;;;;;;;;;;-0.20;99.90;;;;;;4998612;28;20008;-81